createdAt,value
2022-09-10T00:00:46.921Z,100862.25
2022-09-10T00:06:35.454Z,100857.38
2022-09-10T00:12:22.210Z,100855.31
2022-09-10T00:18:11.622Z,100870.41
2022-09-10T00:23:58.698Z,100872.28
2022-09-10T00:29:45.365Z,100876.72
2022-09-10T00:35:33.425Z,100887.56
2022-09-10T00:41:22.355Z,100896.66
2022-09-10T00:47:38.072Z,100895.47
2022-09-10T00:53:28.261Z,100896.44
2022-09-10T00:59:18.871Z,100904.06
2022-09-10T01:05:07.353Z,100897.75
2022-09-10T01:11:08.680Z,100900.47
2022-09-10T01:17:18.450Z,100889.53
2022-09-10T01:23:41.394Z,100902.88
2022-09-10T01:29:33.193Z,100903.50
2022-09-10T01:35:28.259Z,100901.44
2022-09-10T01:41:15.209Z,100909.03
2022-09-10T01:47:14.991Z,100903.53
2022-09-10T01:53:20.575Z,100917.22
2022-09-10T01:59:19.754Z,100915.41
2022-09-10T02:05:08.585Z,100915.47
2022-09-10T02:11:00.585Z,100915.03
2022-09-10T02:16:55.024Z,100920.69
2022-09-10T02:22:52.051Z,100923.63
2022-09-10T02:28:38.998Z,100942.78
2022-09-10T02:34:26.108Z,100941.22
2022-09-10T02:40:13.887Z,100929.69
2022-09-10T02:46:02.414Z,100931.22
2022-09-10T02:51:50.554Z,100936.00
2022-09-10T02:57:40.899Z,100952.25
2022-09-10T03:03:28.946Z,100956.22
2022-09-10T03:09:16.714Z,100959.66
2022-09-10T03:15:03.685Z,100969.88
2022-09-10T03:20:51.498Z,100975.59
2022-09-10T03:26:38.287Z,100978.78
2022-09-10T03:32:25.191Z,100976.78
2022-09-10T03:38:11.939Z,100973.16
2022-09-10T03:44:02.464Z,100971.28
2022-09-10T03:49:50.679Z,100980.38
2022-09-10T03:55:38.086Z,100986.50
2022-09-10T04:01:25.010Z,100991.63
2022-09-10T04:07:11.802Z,100987.06
2022-09-10T04:12:58.930Z,100992.22
2022-09-10T04:18:46.183Z,100999.09
2022-09-10T04:24:36.061Z,101014.72
2022-09-10T04:30:23.500Z,101017.66
2022-09-10T04:36:12.827Z,101011.97
2022-09-10T04:42:00.978Z,101013.34
2022-09-10T04:47:49.498Z,101014.09
2022-09-10T04:53:36.370Z,101014.31
2022-09-10T04:59:23.165Z,101014.41
2022-09-10T05:05:10.091Z,101017.56
2022-09-10T05:11:03.830Z,101017.47
2022-09-10T05:16:50.701Z,101028.94
2022-09-10T05:22:40.617Z,101029.91
2022-09-10T05:28:28.166Z,101036.81
2022-09-10T05:34:15.700Z,101031.78
2022-09-10T05:40:08.440Z,101043.94
2022-09-10T05:45:55.548Z,101062.13
2022-09-10T05:51:42.422Z,101067.59
2022-09-10T05:57:31.230Z,101068.84
2022-09-10T06:03:19.317Z,101074.88
2022-09-10T06:09:08.668Z,101080.28
2022-09-10T06:15:24.954Z,101097.69
2022-09-10T06:21:15.128Z,101100.38
2022-09-10T06:27:03.921Z,101108.75
2022-09-10T06:32:53.299Z,101113.78
2022-09-10T06:38:41.082Z,101123.16
2022-09-10T06:44:31.505Z,101135.19
2022-09-10T06:50:31.357Z,101135.78
2022-09-10T06:56:18.751Z,101145.25
2022-09-10T07:02:06.409Z,101144.19
2022-09-10T07:07:54.928Z,101155.25
2022-09-10T07:13:43.223Z,101168.38
2022-09-10T07:19:36.222Z,101168.38
2022-09-10T07:25:27.020Z,101171.28
2022-09-10T07:31:28.202Z,101182.59
2022-09-10T07:37:17.271Z,101182.59
2022-09-10T07:43:06.997Z,101186.78
2022-09-10T07:48:57.108Z,101192.63
2022-09-10T07:54:44.259Z,101183.66
2022-09-10T08:00:32.236Z,101183.03
2022-09-10T08:06:25.568Z,101187.78
2022-09-10T08:12:13.592Z,101186.69
2022-09-10T08:18:03.450Z,101194.13
2022-09-10T08:23:54.397Z,101194.84
2022-09-10T08:29:41.734Z,101191.53
2022-09-10T08:35:30.183Z,101201.59
2022-09-10T08:41:39.069Z,101196.13
2022-09-10T08:47:56.996Z,101201.00
2022-09-10T08:53:44.096Z,101204.34
2022-09-10T08:59:44.760Z,101219.81
2022-09-10T09:05:45.453Z,101219.31
2022-09-10T09:11:51.189Z,101221.09
2022-09-10T09:18:00.910Z,101238.56
2022-09-10T09:24:12.155Z,101260.47
2022-09-10T09:30:14.229Z,101249.56
2022-09-10T09:36:03.189Z,101248.66
2022-09-10T09:42:18.362Z,101246.69
2022-09-10T09:48:08.428Z,101257.81
2022-09-10T09:54:34.440Z,101252.72
2022-09-10T10:00:31.305Z,101254.66
2022-09-10T10:06:32.298Z,101275.19
2022-09-10T10:12:22.697Z,101275.31
2022-09-10T10:18:38.652Z,101277.97
2022-09-10T10:24:33.870Z,101279.56
2022-09-10T10:30:24.030Z,101264.97
2022-09-10T10:36:21.514Z,101258.56
2022-09-10T10:42:17.654Z,101268.22
2022-09-10T10:48:10.582Z,101260.31
2022-09-10T10:54:15.679Z,101251.00
2022-09-10T11:00:31.980Z,101256.53
2022-09-10T11:06:23.497Z,101266.66
2022-09-10T11:12:16.771Z,101274.41
2022-09-10T11:18:24.023Z,101266.94
2022-09-10T11:24:14.999Z,101254.19
2022-09-10T11:30:10.131Z,101247.56
2022-09-10T11:36:06.233Z,101252.59
2022-09-10T11:41:54.888Z,101247.19
2022-09-10T11:47:50.981Z,101247.84
2022-09-10T11:53:37.664Z,101248.78
2022-09-10T11:59:46.595Z,101267.47
2022-09-10T12:05:42.719Z,101258.50
2022-09-10T12:11:43.361Z,101255.03
2022-09-10T12:17:36.793Z,101272.06
2022-09-10T12:23:37.575Z,101279.28
2022-09-10T12:29:46.009Z,101286.28
2022-09-10T12:35:32.720Z,101280.56
2022-09-10T12:41:28.434Z,101264.75
2022-09-10T12:47:15.093Z,101277.91
2022-09-10T12:53:46.000Z,101278.88
2022-09-10T12:59:42.812Z,101274.19
2022-09-10T13:13:04.981Z,101270.81
2022-09-10T13:19:31.348Z,101275.81
2022-09-10T13:26:19.653Z,101264.84
2022-09-10T13:34:59.910Z,101272.19
2022-09-10T13:40:13.187Z,101267.41
2022-09-10T13:46:10.102Z,101288.75
2022-09-10T13:52:00.019Z,101274.97
2022-09-10T13:57:52.716Z,101290.91
2022-09-10T14:03:43.091Z,101286.50
2022-09-10T14:09:31.326Z,101296.31
2022-09-10T14:15:24.793Z,101303.66
2022-09-10T14:21:16.183Z,101304.91
2022-09-10T14:27:06.331Z,101299.44
2022-09-10T14:32:53.479Z,101304.50
2022-09-10T14:47:42.672Z,101318.78
2022-09-10T15:09:55.201Z,101324.56
2022-09-10T15:15:41.859Z,101326.75
2022-09-10T15:21:28.580Z,101311.88
2022-09-10T15:43:03.875Z,101308.06
2022-09-10T15:48:51.972Z,101306.81
2022-09-10T15:54:39.061Z,101309.53
2022-09-10T16:00:26.011Z,101307.38
2022-09-10T16:06:12.701Z,101314.97
2022-09-10T16:11:59.544Z,101316.69
2022-09-10T16:18:09.039Z,101320.13
2022-09-10T16:25:32.872Z,101312.31
2022-09-10T16:31:37.075Z,101316.53
2022-09-10T16:37:26.187Z,101317.16
2022-09-10T16:49:46.581Z,101346.00
2022-09-10T16:55:33.995Z,101342.91
2022-09-10T17:01:21.556Z,101357.03
2022-09-10T17:07:08.700Z,101374.97
2022-09-10T17:12:56.048Z,101373.69
2022-09-10T17:18:44.251Z,101383.97
2022-09-10T17:24:31.669Z,101382.06
2022-09-10T17:30:24.288Z,101382.56
2022-09-10T17:36:11.360Z,101376.59
2022-09-10T17:41:58.869Z,101385.16
2022-09-10T17:47:45.680Z,101399.31
2022-09-10T17:53:33.873Z,101393.53
2022-09-10T17:59:22.075Z,101397.69
2022-09-10T18:05:11.481Z,101403.94
2022-09-10T18:11:07.557Z,101409.50
2022-09-10T18:16:58.119Z,101424.91
2022-09-10T18:22:49.933Z,101441.13
2022-09-10T18:28:36.855Z,101438.75
2022-09-10T18:41:46.326Z,101458.81
2022-09-10T18:44:26.527Z,101443.25
2022-09-10T18:47:44.532Z,101471.53
2022-09-10T18:53:32.356Z,101475.06
2022-09-10T18:59:21.436Z,101494.97
2022-09-10T19:05:11.621Z,101500.88
2022-09-10T19:10:59.195Z,101512.53
2022-09-10T19:16:47.166Z,101510.91
2022-09-10T19:22:34.000Z,101506.66
2022-09-10T19:28:54.011Z,101504.59
2022-09-10T19:34:53.180Z,101520.41
2022-09-10T19:40:42.667Z,101522.13
2022-09-10T19:46:32.544Z,101538.25
2022-09-10T19:52:19.349Z,101544.44
2022-09-10T19:58:06.509Z,101540.28
2022-09-10T20:03:56.396Z,101542.69
2022-09-10T20:09:44.510Z,101545.38
2022-09-10T20:15:54.429Z,101551.06
2022-09-10T20:21:48.199Z,101543.16
2022-09-10T20:27:41.035Z,101542.69
2022-09-10T20:33:32.894Z,101547.56
2022-09-10T20:39:27.097Z,101560.84
2022-09-10T20:45:29.162Z,101555.22
2022-09-10T20:51:43.991Z,101567.38
2022-09-10T20:57:35.104Z,101562.41
2022-09-10T21:03:33.011Z,101572.50
2022-09-10T21:09:23.130Z,101569.19
2022-09-10T21:15:12.024Z,101574.19
2022-09-10T21:21:13.635Z,101572.28
2022-09-10T21:27:03.074Z,101578.88
2022-09-10T21:33:01.385Z,101576.94
2022-09-10T21:38:59.565Z,101569.19
2022-09-10T21:44:51.877Z,101581.88
2022-09-10T21:50:39.926Z,101585.88
2022-09-10T21:56:29.895Z,101588.75
2022-09-10T22:02:19.262Z,101594.34
2022-09-10T22:08:12.070Z,101590.19
2022-09-10T22:14:24.049Z,101581.56
2022-09-10T22:20:14.506Z,101598.63
2022-09-10T22:26:10.069Z,101601.19
2022-09-10T22:31:58.121Z,101611.44
2022-09-10T22:37:47.572Z,101623.81
2022-09-10T22:43:42.321Z,101620.75
2022-09-10T22:49:30.413Z,101625.56
2022-09-10T22:55:17.824Z,101640.72
2022-09-10T23:01:26.406Z,101634.78
2022-09-10T23:07:14.389Z,101632.69
2022-09-10T23:13:01.842Z,101632.47
2022-09-10T23:18:54.807Z,101637.25
2022-09-10T23:24:41.653Z,101642.69
2022-09-10T23:30:29.900Z,101648.34
2022-09-10T23:36:16.692Z,101641.50
2022-09-10T23:42:03.859Z,101640.91
2022-09-10T23:47:52.373Z,101644.91
2022-09-10T23:53:40.008Z,101637.34
2022-09-10T23:59:32.202Z,101636.97
